createdAt,value
2022-08-03T00:02:53.893Z,6.90
2022-08-03T00:08:01.152Z,5.93
2022-08-03T00:13:05.092Z,9.47
2022-08-03T00:18:10.432Z,8.40
2022-08-03T00:23:16.771Z,6.90
2022-08-03T00:28:20.115Z,8.80
2022-08-03T00:33:25.711Z,7.63
2022-08-03T00:38:31.372Z,7.30
2022-08-03T00:43:34.771Z,6.53
2022-08-03T00:48:38.765Z,7.00
2022-08-03T00:53:46.452Z,6.13
2022-08-03T00:59:02.292Z,9.37
2022-08-03T01:04:11.139Z,7.40
2022-08-03T01:09:35.972Z,7.37
2022-08-03T01:14:54.110Z,6.23
2022-08-03T01:20:31.499Z,6.43
2022-08-03T01:26:04.591Z,5.90
2022-08-03T01:31:12.670Z,6.17
2022-08-03T01:36:35.705Z,5.73
2022-08-03T01:42:08.870Z,5.47
2022-08-03T01:47:13.632Z,6.00
2022-08-03T01:52:23.302Z,5.87
2022-08-03T01:57:30.933Z,5.97
2022-08-03T02:02:37.289Z,5.90
2022-08-03T02:07:42.770Z,6.77
2022-08-03T02:12:51.395Z,6.63
2022-08-03T02:17:57.159Z,6.83
2022-08-03T02:23:01.151Z,6.43
2022-08-03T02:28:12.090Z,6.10
2022-08-03T02:33:46.930Z,6.63
2022-08-03T02:38:56.970Z,6.37
2022-08-03T02:44:08.906Z,6.93
2022-08-03T02:49:41.205Z,6.27
2022-08-03T02:54:48.851Z,6.77
2022-08-03T02:59:58.669Z,7.43
2022-08-03T03:05:52.696Z,6.57
2022-08-03T03:10:47.839Z,7.17
2022-08-03T03:15:53.032Z,6.47
2022-08-03T03:20:59.031Z,7.00
2022-08-03T03:26:03.672Z,7.20
2022-08-03T03:31:08.690Z,7.00
2022-08-03T03:36:12.659Z,6.47
2022-08-03T03:41:16.723Z,6.53
2022-08-03T03:46:20.529Z,6.70
2022-08-03T03:51:24.169Z,8.50
2022-08-03T03:56:28.371Z,8.30
2022-08-03T04:01:32.968Z,7.27
2022-08-03T04:06:54.729Z,7.30
2022-08-03T04:12:02.589Z,7.13
2022-08-03T04:17:09.578Z,7.00
2022-08-03T04:22:24.890Z,6.77
2022-08-03T04:27:32.329Z,7.00
2022-08-03T04:32:44.135Z,7.43
2022-08-03T04:37:52.966Z,7.70
2022-08-03T04:42:57.329Z,7.50
2022-08-03T04:48:02.938Z,6.83
2022-08-03T04:53:07.780Z,7.03
2022-08-03T04:58:11.649Z,7.23
2022-08-03T05:03:19.479Z,7.43
2022-08-03T05:08:28.456Z,8.50
2022-08-03T05:13:32.234Z,7.40
2022-08-03T05:18:36.770Z,7.27
2022-08-03T05:23:40.290Z,7.40
2022-08-03T05:28:50.682Z,8.05
2022-08-03T05:33:55.574Z,8.43
2022-08-03T05:39:02.654Z,7.47
2022-08-03T05:44:06.249Z,6.68
2022-08-03T05:49:10.433Z,7.28
2022-08-03T05:54:13.778Z,7.10
2022-08-03T05:59:37.668Z,7.93
2022-08-03T06:04:40.790Z,7.60
2022-08-03T06:10:35.386Z,8.25
2022-08-03T06:15:11.481Z,7.30
2022-08-03T06:20:21.276Z,8.23
2022-08-03T06:25:31.533Z,7.80
2022-08-03T06:30:35.318Z,8.07
2022-08-03T06:35:39.411Z,7.45
2022-08-03T06:40:46.072Z,7.88
2022-08-03T06:45:52.516Z,7.35
2022-08-03T06:50:56.189Z,7.15
2022-08-03T06:56:00.027Z,7.30
2022-08-03T07:01:04.029Z,6.65
2022-08-03T07:06:08.168Z,6.60
2022-08-03T07:11:14.688Z,6.55
2022-08-03T07:16:18.150Z,6.13
2022-08-03T07:21:24.608Z,6.35
2022-08-03T07:26:32.450Z,6.43
2022-08-03T07:31:35.714Z,7.05
2022-08-03T07:36:42.709Z,6.28
2022-08-03T07:41:54.146Z,6.68
2022-08-03T07:46:59.666Z,6.22
2022-08-03T07:52:28.506Z,5.70
2022-08-03T07:57:35.699Z,5.05
2022-08-03T08:02:41.907Z,4.97
2022-08-03T08:07:51.253Z,4.28
2022-08-03T08:13:02.808Z,4.28
2022-08-03T08:18:08.019Z,4.00
2022-08-03T08:23:37.809Z,3.70
2022-08-03T08:28:39.308Z,2.97
2022-08-03T08:34:08.732Z,2.10
2022-08-03T08:39:14.572Z,2.92
2022-08-03T08:44:26.431Z,3.00
2022-08-03T08:49:38.415Z,2.05
2022-08-03T08:54:53.707Z,2.08
2022-08-03T08:59:58.349Z,2.60
2022-08-03T09:05:07.651Z,2.40
2022-08-03T09:10:13.800Z,2.25
2022-08-03T09:15:19.292Z,2.28
2022-08-03T09:20:24.850Z,2.47
2022-08-03T09:25:37.227Z,2.50
2022-08-03T09:30:45.007Z,2.70
2022-08-03T09:35:54.783Z,1.92
2022-08-03T09:41:19.227Z,2.15
2022-08-03T09:46:22.710Z,2.63
2022-08-03T09:52:11.058Z,1.95
2022-08-03T09:56:49.791Z,2.15
2022-08-03T10:01:54.494Z,2.05
2022-08-03T10:07:07.152Z,2.40
2022-08-03T10:12:14.643Z,2.20
2022-08-03T10:17:18.353Z,2.33
2022-08-03T10:22:29.369Z,2.28
2022-08-03T10:27:36.088Z,2.22
2022-08-03T10:32:43.915Z,2.13
2022-08-03T10:38:10.595Z,2.20
2022-08-03T10:43:21.195Z,2.30
2022-08-03T10:48:25.326Z,1.85
2022-08-03T10:53:54.316Z,2.50
2022-08-03T10:58:59.944Z,2.20
2022-08-03T11:04:11.913Z,2.20
2022-08-03T11:09:18.839Z,2.03
2022-08-03T11:14:23.100Z,2.13
2022-08-03T11:19:57.785Z,1.90
2022-08-03T11:25:01.630Z,2.25
2022-08-03T11:30:27.856Z,2.38
2022-08-03T11:35:32.531Z,3.40
2022-08-03T11:40:40.289Z,1.90
2022-08-03T11:46:03.102Z,1.90
2022-08-03T11:51:09.097Z,2.30
2022-08-03T11:56:13.272Z,2.22
2022-08-03T12:01:22.998Z,2.03
2022-08-03T12:06:26.772Z,2.00
2022-08-03T12:11:31.331Z,1.90
2022-08-03T12:16:34.757Z,1.75
2022-08-03T12:21:57.114Z,1.65
2022-08-03T12:27:00.863Z,1.70
2022-08-03T12:32:04.267Z,1.92
2022-08-03T12:37:22.243Z,2.10
2022-08-03T12:42:37.660Z,1.88
2022-08-03T12:47:57.216Z,1.90
2022-08-03T12:53:02.216Z,1.80
2022-08-03T12:58:07.562Z,1.83
2022-08-03T13:03:41.726Z,1.80
2022-08-03T13:08:34.378Z,2.00
2022-08-03T13:13:41.687Z,2.20
2022-08-03T13:18:48.049Z,2.30
2022-08-03T13:23:51.415Z,2.10
2022-08-03T13:28:54.732Z,1.70
2022-08-03T13:33:57.968Z,1.95
2022-08-03T13:39:01.150Z,2.10
2022-08-03T13:44:26.579Z,2.30
2022-08-03T13:49:30.835Z,2.25
2022-08-03T13:54:34.688Z,2.47
2022-08-03T13:59:38.669Z,2.20
2022-08-03T14:04:42.728Z,2.20
2022-08-03T14:09:45.947Z,2.38
2022-08-03T14:14:49.643Z,2.80
2022-08-03T14:19:54.123Z,2.35
2022-08-03T14:24:58.389Z,2.53
2022-08-03T14:30:02.286Z,2.92
2022-08-03T14:35:05.952Z,2.38
2022-08-03T14:40:10.213Z,2.40
2022-08-03T14:45:19.859Z,2.58
2022-08-03T14:50:38.500Z,2.90
2022-08-03T14:55:50.009Z,2.72
2022-08-03T15:00:56.448Z,2.63
2022-08-03T15:06:00.068Z,2.75
2022-08-03T15:11:03.562Z,2.20
2022-08-03T15:16:09.949Z,2.38
2022-08-03T15:21:45.967Z,2.40
2022-08-03T15:26:41.363Z,2.70
2022-08-03T15:31:45.537Z,2.47
2022-08-03T15:36:49.509Z,2.40
2022-08-03T15:41:53.488Z,2.80
2022-08-03T15:46:56.929Z,2.70
2022-08-03T15:52:01.828Z,3.38
2022-08-03T15:57:05.434Z,2.42
2022-08-03T16:02:09.585Z,3.25
2022-08-03T16:07:14.874Z,2.58
2022-08-03T16:12:19.010Z,2.78
2022-08-03T16:17:24.482Z,2.92
2022-08-03T16:22:28.337Z,2.90
2022-08-03T16:27:56.644Z,2.85
2022-08-03T16:32:55.202Z,3.08
2022-08-03T16:37:59.474Z,2.80
2022-08-03T16:43:02.858Z,3.80
2022-08-03T16:48:06.945Z,3.03
2022-08-03T16:53:15.663Z,3.30
2022-08-03T16:58:34.724Z,2.83
2022-08-03T17:04:01.971Z,3.40
2022-08-03T17:09:13.070Z,3.20
2022-08-03T17:14:23.418Z,3.60
2022-08-03T17:19:33.690Z,3.80
2022-08-03T17:24:42.203Z,4.88
2022-08-03T17:29:49.388Z,4.50
2022-08-03T17:34:53.202Z,4.32
2022-08-03T17:39:59.977Z,4.35
2022-08-03T17:45:06.654Z,3.45
2022-08-03T17:50:24.192Z,3.42
2022-08-03T17:55:55.633Z,3.50
2022-08-03T18:02:00.531Z,3.38
2022-08-03T18:06:55.809Z,2.97
2022-08-03T18:12:05.771Z,3.38
2022-08-03T18:17:19.616Z,2.90
2022-08-03T18:22:25.273Z,2.97
2022-08-03T18:27:42.512Z,5.57
2022-08-03T18:33:00.661Z,4.90
2022-08-03T18:38:18.837Z,4.03
2022-08-03T18:43:46.239Z,4.47
2022-08-03T18:48:54.455Z,4.53
2022-08-03T18:54:45.584Z,4.93
2022-08-03T19:00:02.975Z,5.78
2022-08-03T19:05:12.011Z,5.18
2022-08-03T19:10:17.450Z,5.25
2022-08-03T19:15:36.445Z,6.20
2022-08-03T19:20:42.503Z,6.55
2022-08-03T19:25:52.118Z,6.78
2022-08-03T19:31:02.630Z,9.85
2022-08-03T19:36:11.250Z,6.85
2022-08-03T19:41:18.951Z,6.38
2022-08-03T19:46:30.524Z,6.57
2022-08-03T19:52:01.337Z,6.60
2022-08-03T19:57:01.904Z,6.88
2022-08-03T20:02:08.570Z,6.40
2022-08-03T20:07:22.915Z,7.65
2022-08-03T20:12:56.002Z,7.40
2022-08-03T20:18:00.974Z,8.93
2022-08-03T20:23:14.090Z,7.72
2022-08-03T20:28:30.134Z,7.30
2022-08-03T20:33:48.449Z,8.05
2022-08-03T20:38:57.618Z,7.50
2022-08-03T20:44:05.346Z,7.93
2022-08-03T20:49:14.850Z,7.90
2022-08-03T20:54:28.974Z,9.05
2022-08-03T20:59:50.627Z,7.68
2022-08-03T21:04:55.605Z,7.72
2022-08-03T21:10:03.422Z,7.35
2022-08-03T21:16:06.324Z,7.35
2022-08-03T21:20:45.330Z,6.50
2022-08-03T21:25:53.973Z,7.22
2022-08-03T21:31:03.250Z,7.28
2022-08-03T21:36:07.693Z,6.53
2022-08-03T21:41:19.559Z,6.60
2022-08-03T21:46:44.232Z,6.90
2022-08-03T21:52:08.746Z,7.07
2022-08-03T21:57:33.919Z,6.55
2022-08-03T22:03:17.485Z,6.82
2022-08-03T22:21:36.461Z,7.10
2022-08-03T22:27:15.672Z,7.30
2022-08-03T22:32:20.237Z,6.68
2022-08-03T22:37:30.915Z,6.32
2022-08-03T22:42:36.373Z,6.22
2022-08-03T22:47:43.384Z,7.00
2022-08-03T22:52:59.233Z,6.82
2022-08-03T22:58:02.635Z,7.00
2022-08-03T23:03:07.942Z,7.20
2022-08-03T23:08:13.473Z,7.30
2022-08-03T23:13:26.464Z,6.75
2022-08-03T23:18:37.041Z,7.32
2022-08-03T23:23:45.104Z,7.57
2022-08-03T23:28:49.430Z,7.07
2022-08-03T23:34:16.720Z,7.90
2022-08-03T23:39:20.662Z,7.78
2022-08-03T23:44:26.133Z,7.65
2022-08-03T23:49:29.883Z,8.18
2022-08-03T23:54:52.189Z,7.95
